Peabody, Massachusetts
Current Conditions -  °F | °C
As of 11:53 PM on Saturday 25 Oct 2014 (Local Time) from KBVY Reporting Station
Broken Clouds Broken Clouds  
Wind Chill: 55°   Ceiling: 11000
Heat Index: 55°   Visibility: 10mi
Dew Point: 44°   Wind: 6mph
Humidity: 67%   Direction: 230°SW
Pressure: 29.48"   Gusts: NA
Location:  42.53°N, 70.93°W
Report Text: KBVY 260353Z AUTO 23005KT 10SM SCT090 BKN110 13/07 A2948 RMK AO2 SLP977 T01280067 $
Loading
Personal Weather Stations






























Interactive Weather Map
Tropical Storm Tracking
New forecast layout! Learn more

10-Day Weather Forecast

Advertisements
Track Severe Weather on mobile